ポルト・アレグレ の空港の天気 - METARとTAF

ポルト・アレグレ国際空港 ( SBPA / POA ) - ブラジル リオグランデ・ド・スル州ポルト・アレグレ
飛行場実況気象(Metar)
観測時間07/28 23:00 BRT (07/29 02:00 UTC)
風向・風速西北西 5m/s
視程10km以上
天気現象
なし
気温6℃
湿度81%
気圧1024hPa
METARSBPA 290200Z 29010KT CAVOK 06/03 Q1024
過去の天気等 Google飛行場航空写真 Wunderground天気予報

過去48時間のMETAR

飛行場予報(TAF)
発表時間: 7/28 18:00 BRT (7/28 21:00 UTC)
予報対象時間: 28日21時 BRT ~ 29日21時 BRT
風向・風速西 8m/s
視程10km以上
全天の8割程度の雲 雲底高度 910m
28日21時 BRT ~ 28日23時 BRT に徐々に
風向・風速西 5m/s
視程10km以上
なし
TAF SBPA 282100Z 2900/2924 27015KT 9999 BKN030 TN00/2908Z TX11/2918Z
BECMG 2900/2902 27009KT CAVOK RMK PER